首页
METAR-TAF:

METAR-TAF

机场 :

里米尼, 意大利

纬度: 44-02N, 经度: 012-37E, 海拔: 12米

当前天气观测

该预报发布于34分钟前的20:20 UTC
风速2节,风向
温度 14°C
湿度 77%
气压 1019 hPa
能见度10公里或以上
多云层高于6000英尺

METAR: LIPR 292020Z 19002KT 9999 BKN060 14/10 Q1019

时间: 22:54 (20:54 UTC)

预报

该预报发布于3小时和54分钟前的17:00 UTC
预报有效从29日的 18点(UTC)到 30日的 03点(UTC)
风速5节,风向多变
能见度10公里或以上
散云层高于3000英尺

TAF: LIPR 291700Z 2918/3003 VRB05KT 9999 SCT030

超过4000个机场的气象观测和天气预报(METAR&TAF报告)。

可查询的气象台以黄色和红色小点在地图上表示。

将鼠标移到小点上方,可查看气象台名称。

然后点击查看天气观测和预报。

如需切换地图:点击带黑十字的绿色按钮放大地图;点击带横线的绿色按钮缩小地图;或者点击绿色箭头查看邻近地区的地图。


METAR-TAF: